Time;durP1;ratioP1;P1;durP2;ratioP2;P2;SDS_P1;SDS_P2;PMS_P1;PMS_P2;Temp;Humidity;BMP_temperature;BMP_pressure;BME280_temperature;BME280_humidity;BME280_pressure;Samples;Min_cycle;Max_cycle;Signal;HPM_P1;HPM_P2
2022/04/15 00:02:05;;;;;;;4.40;4.00;;;15.10;99.90;;;;;;6000710;23;20449;-75
2022/04/15 00:04:34;;;;;;;5.40;3.63;;;15.10;99.90;;;;;;6002249;23;21127;-75
2022/04/15 00:07:01;;;;;;;5.27;4.27;;;15.10;99.90;;;;;;6003377;23;20445;-75
2022/04/15 00:09:30;;;;;;;4.80;4.40;;;15.10;99.90;;;;;;6002193;23;20467;-72
2022/04/15 00:12:00;;;;;;;5.00;4.60;;;15.10;99.90;;;;;;5996476;23;20441;-74
2022/04/15 00:14:27;;;;;;;5.10;4.60;;;15.10;99.90;;;;;;6002258;23;20481;-75
2022/04/15 00:16:55;;;;;;;5.17;4.67;;;15.00;99.90;;;;;;6003018;23;20445;-74
2022/04/15 00:19:23;;;;;;;5.63;4.83;;;15.00;99.90;;;;;;6003456;23;20648;-74
2022/04/15 00:21:50;;;;;;;4.73;4.33;;;15.00;99.90;;;;;;5998287;23;20967;-74
2022/04/15 00:24:17;;;;;;;5.17;4.70;;;14.90;99.90;;;;;;6000365;23;20447;-74
2022/04/15 00:26:44;;;;;;;5.03;4.53;;;14.90;99.90;;;;;;6004236;23;20473;-74
2022/04/15 00:29:12;;;;;;;4.47;4.07;;;14.90;99.90;;;;;;6001548;23;20480;-74
2022/04/15 00:31:39;;;;;;;4.70;4.33;;;14.80;99.90;;;;;;6002929;23;20453;-75
2022/04/15 00:34:07;;;;;;;4.63;4.23;;;14.80;99.90;;;;;;6002322;23;20447;-74
2022/04/15 00:36:35;;;;;;;5.67;4.10;;;14.80;99.90;;;;;;6003113;23;20465;-74
2022/04/15 00:39:02;;;;;;;4.50;4.20;;;14.80;99.90;;;;;;6003301;23;20988;-74
2022/04/15 00:41:29;;;;;;;5.00;4.20;;;14.80;99.90;;;;;;6004544;23;20479;-74
2022/04/15 00:43:58;;;;;;;5.10;4.60;;;14.80;99.90;;;;;;6001289;23;20538;-74
2022/04/15 00:46:25;;;;;;;4.87;4.47;;;14.90;99.90;;;;;;5996213;23;20948;-74
2022/04/15 00:48:52;;;;;;;3.90;3.60;;;14.90;99.90;;;;;;6001985;23;20827;-75
2022/04/15 00:51:20;;;;;;;4.83;4.43;;;14.80;99.90;;;;;;6003954;23;20480;-74
2022/04/15 00:53:47;;;;;;;4.80;4.40;;;14.80;99.90;;;;;;5989990;23;20476;-74
2022/04/15 00:56:14;;;;;;;5.37;4.97;;;14.80;99.90;;;;;;6002647;23;20503;-74
2022/04/15 00:58:42;;;;;;;4.93;4.53;;;14.80;99.90;;;;;;6001691;23;21015;-74
2022/04/15 01:01:10;;;;;;;4.83;4.43;;;14.80;99.90;;;;;;6001613;23;20502;-74
2022/04/15 01:03:37;;;;;;;4.50;4.20;;;14.90;99.90;;;;;;5976621;24;20547;-74
2022/04/15 01:06:07;;;;;;;4.60;4.20;;;14.70;99.90;;;;;;6000918;23;20443;-74
2022/04/15 01:08:39;;;;;;;4.53;4.17;;;14.70;99.90;;;;;;6003138;23;20825;-75
2022/04/15 01:11:08;;;;;;;4.80;4.30;;;14.70;99.90;;;;;;6003839;23;20445;-74
2022/04/15 01:13:38;;;;;;;4.27;3.97;;;14.70;99.90;;;;;;6002123;23;20445;-74
2022/04/15 01:16:07;;;;;;;4.53;4.17;;;14.70;99.90;;;;;;5996589;23;20437;-74
2022/04/15 01:18:34;;;;;;;4.53;4.13;;;14.70;99.90;;;;;;6002313;23;20464;-75
2022/04/15 01:21:02;;;;;;;5.00;4.50;;;14.60;99.90;;;;;;6002769;23;20507;-74
2022/04/15 01:23:30;;;;;;;4.00;3.70;;;14.60;99.90;;;;;;6001617;23;20777;-74
2022/04/15 01:25:57;;;;;;;4.40;4.00;;;14.60;99.90;;;;;;6002022;23;20479;-74
2022/04/15 01:28:24;;;;;;;4.43;4.13;;;14.60;99.90;;;;;;6001672;23;20484;-74
2022/04/15 01:30:51;;;;;;;4.73;4.20;;;14.60;99.90;;;;;;6001403;23;20528;-74
2022/04/15 01:33:19;;;;;;;4.90;4.10;;;14.60;99.90;;;;;;6003965;23;20463;-74
2022/04/15 01:35:46;;;;;;;4.40;4.00;;;14.60;99.90;;;;;;6000726;23;20900;-74
2022/04/15 01:38:14;;;;;;;4.57;4.17;;;14.60;99.90;;;;;;6005604;23;20466;-74
2022/04/15 01:40:44;;;;;;;4.33;3.93;;;14.60;99.90;;;;;;6002058;23;20521;-73
2022/04/15 01:43:12;;;;;;;5.60;4.47;;;14.60;99.90;;;;;;6001273;23;20448;-74
2022/04/15 01:45:39;;;;;;;4.50;4.10;;;14.60;99.90;;;;;;6002832;23;20943;-75
2022/04/15 01:48:06;;;;;;;5.53;5.03;;;14.70;99.90;;;;;;6002570;23;20444;-75
2022/04/15 01:50:33;;;;;;;3.90;3.60;;;14.70;99.90;;;;;;6004193;23;20448;-74
2022/04/15 01:53:00;;;;;;;4.63;4.07;;;14.70;99.90;;;;;;6004221;23;21014;-73
2022/04/15 01:55:27;;;;;;;4.37;3.97;;;14.70;99.90;;;;;;6002513;23;20535;-74
2022/04/15 01:57:56;;;;;;;5.13;4.50;;;14.70;99.90;;;;;;6004530;23;20440;-74
2022/04/15 02:00:23;;;;;;;4.80;4.00;;;14.70;99.90;;;;;;6001679;23;21215;-74
2022/04/15 02:02:51;;;;;;;4.30;3.90;;;14.70;99.90;;;;;;6000749;23;20476;-74
2022/04/15 02:05:18;;;;;;;4.30;3.97;;;14.60;99.90;;;;;;5998192;23;20850;-74
2022/04/15 02:07:45;;;;;;;4.80;3.63;;;14.60;99.90;;;;;;6005171;23;20447;-74
2022/04/15 02:10:12;;;;;;;5.30;4.80;;;14.60;99.90;;;;;;6002470;23;20464;-74
2022/04/15 02:12:39;;;;;;;4.87;4.57;;;14.50;99.90;;;;;;6002271;23;20441;-74
2022/04/15 02:15:09;;;;;;;4.83;4.40;;;14.50;99.90;;;;;;6003663;23;20507;-74
2022/04/15 02:17:37;;;;;;;4.47;4.17;;;14.50;99.90;;;;;;6004043;23;20449;-74
2022/04/15 02:20:05;;;;;;;4.90;4.50;;;14.50;99.90;;;;;;5999691;23;20475;-74
2022/04/15 02:22:32;;;;;;;4.70;4.20;;;14.40;99.90;;;;;;6004782;23;20897;-74
2022/04/15 02:25:00;;;;;;;5.57;5.07;;;14.40;99.90;;;;;;6001432;23;20977;-74
2022/04/15 02:27:27;;;;;;;8.50;5.63;;;14.40;99.90;;;;;;6003757;23;20448;-74
2022/04/15 02:29:54;;;;;;;4.77;4.37;;;14.40;99.90;;;;;;6001833;23;20495;-74
2022/04/15 02:32:23;;;;;;;5.40;4.53;;;14.30;99.90;;;;;;6003818;23;20543;-74
2022/04/15 02:34:50;;;;;;;5.87;5.27;;;14.20;99.90;;;;;;5999153;23;20481;-74
2022/04/15 02:37:17;;;;;;;6.70;6.10;;;14.20;99.90;;;;;;6004658;23;20482;-74
2022/04/15 02:39:45;;;;;;;6.43;5.83;;;14.10;99.90;;;;;;5999480;23;20472;-75
2022/04/15 02:42:12;;;;;;;6.47;5.80;;;14.00;99.90;;;;;;6003689;23;20447;-75
2022/04/15 02:44:39;;;;;;;8.83;6.00;;;14.00;99.90;;;;;;6002306;23;20447;-74
2022/04/15 02:47:08;;;;;;;6.30;5.73;;;13.90;99.90;;;;;;6001501;23;20451;-75
2022/04/15 02:49:36;;;;;;;7.47;6.70;;;13.80;99.90;;;;;;6001842;23;20835;-74
2022/04/15 02:52:05;;;;;;;6.77;6.17;;;13.80;99.90;;;;;;6003670;23;20450;-74
2022/04/15 02:54:32;;;;;;;7.33;6.73;;;13.70;99.90;;;;;;6002273;23;20446;-75
2022/04/15 02:56:59;;;;;;;7.90;7.17;;;13.70;99.90;;;;;;6002585;23;20448;-73
2022/04/15 02:59:25;;;;;;;7.93;7.07;;;13.60;99.90;;;;;;6002989;23;20488;-74
2022/04/15 03:01:53;;;;;;;8.33;7.33;;;13.50;99.90;;;;;;5999680;23;20688;-74
2022/04/15 03:04:20;;;;;;;8.53;7.50;;;13.50;99.90;;;;;;6003259;23;20450;-74
2022/04/15 03:06:48;;;;;;;8.47;7.70;;;13.40;99.90;;;;;;6002730;23;20465;-74
2022/04/15 03:09:15;;;;;;;7.83;7.10;;;13.40;99.90;;;;;;6003884;23;20546;-74
2022/04/15 03:11:42;;;;;;;8.20;7.50;;;13.40;99.90;;;;;;6003659;23;20513;-74
2022/04/15 03:14:09;;;;;;;8.20;7.50;;;13.50;99.90;;;;;;6001793;23;20456;-74
2022/04/15 03:16:37;;;;;;;8.00;7.37;;;13.50;99.90;;;;;;5996199;23;20443;-74
2022/04/15 03:19:04;;;;;;;7.70;7.10;;;13.50;99.90;;;;;;6000318;23;21205;-74
2022/04/15 03:21:31;;;;;;;8.07;7.40;;;13.50;99.90;;;;;;6003890;23;20470;-74
2022/04/15 03:24:00;;;;;;;7.00;6.40;;;13.50;99.90;;;;;;6002150;23;20968;-75
2022/04/15 03:26:26;;;;;;;7.43;6.70;;;13.50;99.90;;;;;;6003250;23;20926;-74
2022/04/15 03:28:53;;;;;;;7.00;6.40;;;13.50;99.90;;;;;;5993340;23;20497;-74
2022/04/15 03:31:20;;;;;;;6.60;6.10;;;13.50;99.90;;;;;;6003654;23;20450;-74
2022/04/15 03:33:47;;;;;;;7.80;7.00;;;13.50;99.90;;;;;;6001036;23;20866;-75
2022/04/15 03:36:15;;;;;;;7.23;6.63;;;13.50;99.90;;;;;;6003291;23;20448;-75
2022/04/15 03:38:42;;;;;;;7.43;6.85;;;13.50;99.90;;;;;;6001570;23;20824;-74
2022/04/15 03:41:10;;;;;;;7.07;6.50;;;13.50;99.90;;;;;;6002089;23;20219;-74
2022/04/15 03:43:37;;;;;;;7.97;7.27;;;13.40;99.90;;;;;;6001954;23;20215;-74
2022/04/15 03:46:04;;;;;;;7.70;7.10;;;13.30;99.90;;;;;;5999940;23;20477;-74
2022/04/15 03:48:31;;;;;;;8.63;7.83;;;13.30;99.90;;;;;;6000034;23;20466;-74
2022/04/15 03:50:58;;;;;;;7.97;7.27;;;13.20;99.90;;;;;;6005201;23;20441;-74
2022/04/15 03:53:25;;;;;;;9.07;8.17;;;13.20;99.90;;;;;;6002190;23;20632;-74
2022/04/15 03:55:52;;;;;;;7.72;7.13;;;13.10;99.90;;;;;;6002992;23;20976;-74
2022/04/15 03:58:21;;;;;;;8.20;7.50;;;13.10;99.90;;;;;;6002348;23;20254;-74
2022/04/15 04:00:48;;;;;;;8.70;7.53;;;13.10;99.90;;;;;;6003297;23;20217;-74
2022/04/15 04:03:16;;;;;;;8.88;7.60;;;13.00;99.90;;;;;;6001018;23;20938;-74
2022/04/15 04:05:43;;;;;;;8.53;7.80;;;13.00;99.90;;;;;;6002953;23;20191;-74
2022/04/15 04:08:11;;;;;;;8.98;8.20;;;13.00;99.90;;;;;;6003753;23;20471;-74
2022/04/15 04:10:38;;;;;;;8.48;7.70;;;12.90;99.90;;;;;;6003788;23;20194;-74
2022/04/15 04:13:05;;;;;;;11.38;9.57;;;12.90;99.90;;;;;;6001868;23;20273;-74
2022/04/15 04:15:34;;;;;;;9.65;8.65;;;12.90;99.90;;;;;;5997277;23;20204;-73
2022/04/15 04:18:01;;;;;;;8.90;8.10;;;12.80;99.90;;;;;;6000874;23;20229;-73
2022/04/15 04:20:28;;;;;;;9.00;8.10;;;12.80;99.90;;;;;;6004583;23;20221;-74
2022/04/15 04:22:55;;;;;;;9.35;8.25;;;12.80;99.90;;;;;;6002098;23;20194;-74
2022/04/15 04:25:22;;;;;;;9.43;8.63;;;12.70;99.90;;;;;;6000632;23;20665;-73
2022/04/15 04:27:49;;;;;;;9.00;8.20;;;12.60;99.90;;;;;;6002747;23;20214;-73
2022/04/15 04:30:17;;;;;;;9.15;8.45;;;12.60;99.90;;;;;;6002419;23;20200;-74
2022/04/15 04:32:49;;;;;;;9.27;8.48;;;12.50;99.90;;;;;;5991842;23;20201;-75
2022/04/15 04:35:19;;;;;;;10.77;9.68;;;12.50;99.90;;;;;;6004550;23;20194;-75
2022/04/15 04:37:46;;;;;;;9.60;8.45;;;12.50;99.90;;;;;;6001158;23;20222;-75
2022/04/15 04:40:14;;;;;;;9.85;8.88;;;12.40;99.90;;;;;;5997941;23;20316;-75
2022/04/15 04:42:42;;;;;;;9.80;8.60;;;12.40;99.90;;;;;;6000112;23;20225;-75
2022/04/15 04:45:11;;;;;;;9.02;8.30;;;12.40;99.90;;;;;;6001950;23;20197;-75
2022/04/15 04:47:39;;;;;;;9.25;8.35;;;12.40;99.90;;;;;;5996152;23;20554;-75
2022/04/15 04:50:10;;;;;;;9.38;8.48;;;12.40;99.90;;;;;;6003115;23;20639;-75
2022/04/15 04:52:37;;;;;;;9.50;8.70;;;12.40;99.90;;;;;;6002137;23;20269;-75
2022/04/15 04:55:06;;;;;;;10.07;9.18;;;12.50;99.90;;;;;;6002397;23;20217;-74
2022/04/15 04:57:33;;;;;;;9.50;8.60;;;12.50;99.90;;;;;;5999954;23;20253;-75
2022/04/15 05:00:00;;;;;;;9.07;8.27;;;12.50;99.90;;;;;;6001358;23;20665;-75
2022/04/15 05:02:27;;;;;;;9.35;8.57;;;12.60;99.90;;;;;;6002418;23;20709;-74
2022/04/15 05:04:54;;;;;;;9.18;8.38;;;12.60;99.90;;;;;;6001466;23;20273;-75
2022/04/15 05:07:22;;;;;;;10.00;9.10;;;12.70;99.90;;;;;;6003433;23;20717;-75
2022/04/15 05:09:49;;;;;;;8.55;7.82;;;12.70;99.90;;;;;;6003074;23;20226;-74
2022/04/15 05:12:17;;;;;;;8.68;7.88;;;12.80;99.90;;;;;;6005146;23;20190;-74
2022/04/15 05:14:43;;;;;;;10.43;9.53;;;12.80;99.90;;;;;;6002615;23;20221;-73
2022/04/15 05:17:11;;;;;;;9.75;8.85;;;12.90;99.90;;;;;;6000344;23;20868;-74
2022/04/15 05:19:38;;;;;;;9.50;8.65;;;13.10;99.90;;;;;;6000569;23;20222;-74
2022/04/15 05:22:05;;;;;;;12.48;9.20;;;13.00;99.90;;;;;;6001919;23;20771;-74
2022/04/15 05:24:33;;;;;;;9.15;8.35;;;13.00;99.90;;;;;;5990513;23;20274;-74
2022/04/15 05:27:01;;;;;;;9.05;8.25;;;13.10;99.90;;;;;;5989531;23;20198;-75
2022/04/15 05:29:28;;;;;;;9.73;8.70;;;13.10;99.90;;;;;;5994670;23;20237;-75
2022/04/15 05:32:03;;;;;;;10.00;9.10;;;13.10;99.90;;;;;;6000801;23;20443;-75
2022/04/15 05:34:31;;;;;;;10.70;9.80;;;13.30;99.90;;;;;;5999639;23;20532;-76
2022/04/15 05:36:57;;;;;;;9.60;8.70;;;13.30;99.90;;;;;;6001655;23;20453;-75
2022/04/15 05:39:25;;;;;;;10.00;9.00;;;13.40;99.90;;;;;;6001114;23;20513;-75
2022/04/15 05:41:53;;;;;;;11.23;10.10;;;13.50;99.90;;;;;;6001346;23;20483;-75
2022/04/15 05:44:21;;;;;;;11.10;10.00;;;13.60;99.90;;;;;;6003574;23;20447;-74
2022/04/15 05:46:48;;;;;;;10.20;9.20;;;13.70;99.90;;;;;;6001320;23;20528;-76
2022/04/15 05:49:16;;;;;;;10.63;9.73;;;13.90;99.90;;;;;;6002070;23;20474;-74
2022/04/15 05:51:45;;;;;;;10.03;9.23;;;14.00;99.90;;;;;;6001746;23;20458;-74
2022/04/15 05:54:12;;;;;;;12.83;9.10;;;14.10;99.90;;;;;;6004092;23;20562;-74
2022/04/15 05:56:39;;;;;;;10.23;9.23;;;14.10;99.90;;;;;;6003288;23;20921;-74
2022/04/15 05:59:08;;;;;;;9.37;8.60;;;14.20;99.90;;;;;;6002734;23;20552;-74
2022/04/15 06:01:35;;;;;;;11.00;10.00;;;14.20;99.90;;;;;;6001964;23;20522;-77
2022/04/15 06:04:02;;;;;;;10.07;9.23;;;14.30;99.90;;;;;;6001944;23;20451;-74
2022/04/15 06:06:29;;;;;;;10.33;9.43;;;14.30;99.90;;;;;;6000251;23;20455;-74
2022/04/15 06:08:56;;;;;;;10.93;9.90;;;14.30;99.90;;;;;;6000102;23;20462;-75
2022/04/15 06:11:25;;;;;;;11.90;10.53;;;14.40;99.90;;;;;;5999812;23;20479;-74
2022/04/15 06:13:52;;;;;;;10.80;9.80;;;14.50;99.90;;;;;;5996396;23;20518;-74
2022/04/15 06:16:21;;;;;;;12.43;11.30;;;14.60;99.90;;;;;;5998838;23;20522;-72
2022/04/15 06:18:49;;;;;;;12.73;11.43;;;14.70;99.90;;;;;;6000041;23;20803;-73
2022/04/15 06:21:16;;;;;;;12.63;11.40;;;14.90;99.90;;;;;;5993039;23;20476;-73
2022/04/15 06:23:43;;;;;;;12.63;11.40;;;15.00;99.90;;;;;;5994768;23;20460;-73
2022/04/15 06:26:11;;;;;;;11.90;10.80;;;15.10;99.90;;;;;;6002928;23;20482;-74
2022/04/15 06:28:38;;;;;;;12.47;11.20;;;15.20;99.90;;;;;;6000781;23;20489;-74
2022/04/15 06:31:04;;;;;;;11.70;10.63;;;15.30;99.90;;;;;;6000486;23;20445;-74
2022/04/15 06:33:33;;;;;;;12.00;10.83;;;15.50;99.90;;;;;;5999594;23;20445;-75
2022/04/15 06:36:00;;;;;;;11.33;10.33;;;15.70;99.90;;;;;;5996191;23;20445;-74
2022/04/15 06:38:27;;;;;;;10.97;9.97;;;15.90;99.90;;;;;;5997940;23;21014;-74
2022/04/15 06:40:54;;;;;;;11.93;10.90;;;16.10;99.90;;;;;;5994112;23;20519;-74
2022/04/15 06:43:21;;;;;;;10.50;9.60;;;16.30;99.90;;;;;;5999162;23;20481;-75
2022/04/15 06:45:48;;;;;;;10.47;9.47;;;16.50;99.90;;;;;;6003269;23;20453;-75
2022/04/15 06:48:15;;;;;;;10.90;9.90;;;16.90;99.90;;;;;;6002127;23;20505;-75
2022/04/15 06:50:43;;;;;;;10.33;9.53;;;17.50;99.90;;;;;;5996255;23;20926;-75
2022/04/15 06:53:11;;;;;;;10.33;9.40;;;18.30;99.90;;;;;;5994098;23;20453;-75
2022/04/15 06:55:38;;;;;;;9.97;9.10;;;19.10;99.90;;;;;;5998048;23;20467;-77
2022/04/15 06:58:05;;;;;;;13.57;10.70;;;19.80;99.90;;;;;;6000211;23;20512;-78
2022/04/15 07:00:32;;;;;;;9.37;8.37;;;20.50;99.90;;;;;;5988927;23;20477;-76
2022/04/15 07:02:59;;;;;;;9.87;9.10;;;21.10;99.90;;;;;;5993292;23;20462;-77
2022/04/15 07:05:26;;;;;;;9.63;8.43;;;21.60;99.90;;;;;;5999706;23;20531;-77
2022/04/15 07:07:55;;;;;;;8.00;7.40;;;22.20;99.90;;;;;;5991481;23;20459;-75
2022/04/15 07:10:22;;;;;;;8.50;7.83;;;22.70;99.90;;;;;;6000253;23;20444;-75
2022/04/15 07:12:49;;;;;;;10.40;9.50;;;23.00;99.90;;;;;;6000296;23;20442;-74
2022/04/15 07:15:16;;;;;;;10.37;9.47;;;23.20;99.90;;;;;;6002334;23;20570;-73
2022/04/15 07:17:43;;;;;;;9.70;8.73;;;23.30;99.80;;;;;;6001250;23;21002;-74
2022/04/15 07:20:10;;;;;;;10.07;9.17;;;23.40;99.20;;;;;;6001234;23;20839;-75
2022/04/15 07:22:37;;;;;;;9.43;8.37;;;23.50;98.90;;;;;;5995286;23;20479;-75
2022/04/15 07:25:06;;;;;;;8.63;7.83;;;23.80;98.40;;;;;;5999667;23;20451;-75
2022/04/15 07:27:33;;;;;;;8.87;8.17;;;24.20;97.30;;;;;;6000943;23;20481;-75
2022/04/15 07:30:00;;;;;;;9.23;8.47;;;24.70;96.30;;;;;;6002536;23;20507;-75
2022/04/15 07:32:28;;;;;;;10.03;9.13;;;25.10;95.10;;;;;;6000701;23;20563;-75
2022/04/15 07:34:55;;;;;;;11.67;10.57;;;25.40;93.80;;;;;;5988695;23;20579;-75
2022/04/15 07:37:23;;;;;;;9.77;8.97;;;25.30;93.30;;;;;;5994230;23;20464;-75
2022/04/15 07:39:50;;;;;;;9.90;9.10;;;25.20;93.10;;;;;;5998771;23;20437;-75
2022/04/15 07:42:18;;;;;;;10.53;9.73;;;25.00;92.90;;;;;;5997242;23;20457;-75
2022/04/15 07:44:45;;;;;;;10.40;9.50;;;25.10;92.70;;;;;;6003728;23;20453;-75
2022/04/15 07:47:13;;;;;;;11.17;10.20;;;25.30;91.90;;;;;;5996127;23;20482;-75
2022/04/15 07:49:40;;;;;;;11.40;10.50;;;25.20;91.40;;;;;;5991831;23;20784;-75
2022/04/15 07:52:08;;;;;;;11.53;10.60;;;24.80;90.60;;;;;;6002195;23;20441;-75
2022/04/15 07:54:36;;;;;;;11.80;10.60;;;24.80;90.30;;;;;;5989312;23;20458;-75
2022/04/15 07:57:03;;;;;;;10.57;9.67;;;25.10;90.70;;;;;;5999137;23;20464;-75
2022/04/15 07:59:31;;;;;;;11.97;10.50;;;25.40;90.50;;;;;;5996418;23;20844;-75
2022/04/15 08:01:59;;;;;;;11.27;10.43;;;25.70;89.20;;;;;;6002806;23;20489;-75
2022/04/15 08:04:26;;;;;;;10.83;9.93;;;25.90;88.90;;;;;;5993662;23;20433;-76
2022/04/15 08:06:54;;;;;;;10.97;10.07;;;26.30;87.40;;;;;;5979754;23;20461;-76
2022/04/15 08:09:21;;;;;;;10.50;9.70;;;26.50;85.80;;;;;;6002360;23;20809;-76
2022/04/15 08:11:49;;;;;;;10.83;9.93;;;26.90;83.40;;;;;;6003456;23;20480;-76
2022/04/15 08:14:16;;;;;;;12.20;11.13;;;27.30;82.30;;;;;;6004021;23;20521;-76
2022/04/15 08:16:44;;;;;;;11.83;10.90;;;27.60;80.00;;;;;;6004613;23;20444;-76
2022/04/15 08:19:11;;;;;;;12.47;11.07;;;27.70;78.50;;;;;;6004579;23;20640;-76
2022/04/15 08:21:38;;;;;;;11.47;10.63;;;27.70;77.90;;;;;;6003208;23;20471;-76
2022/04/15 08:24:06;;;;;;;10.07;9.37;;;27.80;77.00;;;;;;6003200;23;21058;-77
2022/04/15 08:26:33;;;;;;;10.43;9.63;;;27.90;77.40;;;;;;6004644;23;20461;-76
2022/04/15 08:28:59;;;;;;;10.77;9.87;;;28.10;77.10;;;;;;6004851;23;20974;-76
2022/04/15 08:31:27;;;;;;;12.17;11.27;;;28.60;75.10;;;;;;6004504;23;20456;-76
2022/04/15 08:33:55;;;;;;;12.30;10.90;;;28.60;72.20;;;;;;6003720;23;20524;-77
2022/04/15 08:36:22;;;;;;;11.40;10.60;;;28.30;73.30;;;;;;5994824;23;20442;-76
2022/04/15 08:38:49;;;;;;;13.10;12.00;;;27.90;73.30;;;;;;6004105;23;20437;-76
2022/04/15 08:41:19;;;;;;;12.30;11.40;;;27.70;72.50;;;;;;6003956;23;20528;-77
2022/04/15 08:43:45;;;;;;;12.10;11.20;;;27.20;72.60;;;;;;6003474;23;20824;-77
2022/04/15 08:46:14;;;;;;;12.33;11.33;;;27.10;74.00;;;;;;6004143;23;20443;-75
2022/04/15 08:48:41;;;;;;;10.60;9.90;;;27.10;74.30;;;;;;6004124;23;20551;-75
2022/04/15 08:51:09;;;;;;;12.70;11.80;;;27.20;75.00;;;;;;6003956;23;20449;-75
2022/04/15 08:53:37;;;;;;;10.47;9.67;;;27.40;74.60;;;;;;5988317;23;20452;-76
2022/04/15 08:56:05;;;;;;;10.60;9.90;;;27.60;75.00;;;;;;6003279;23;20912;-76
2022/04/15 08:58:32;;;;;;;11.83;11.03;;;28.00;73.70;;;;;;6004224;23;20461;-77
2022/04/15 09:00:59;;;;;;;12.40;11.50;;;28.40;71.00;;;;;;6001545;23;20976;-76
2022/04/15 09:03:26;;;;;;;12.47;11.40;;;28.50;70.10;;;;;;6003798;23;20469;-76
2022/04/15 09:05:53;;;;;;;10.03;9.33;;;28.40;70.30;;;;;;6003940;23;20519;-76
2022/04/15 09:08:21;;;;;;;11.77;10.87;;;28.40;70.50;;;;;;6004595;23;20487;-76
2022/04/15 09:10:56;;;;;;;11.77;10.90;;;28.20;70.30;;;;;;6002420;23;20437;-77
2022/04/15 09:13:28;;;;;;;12.10;11.13;;;28.00;69.90;;;;;;5995902;23;20932;-75
2022/04/15 09:15:57;;;;;;;11.00;10.17;;;27.70;70.80;;;;;;6002980;23;20443;-76
2022/04/15 09:18:32;;;;;;;12.50;11.60;;;27.70;71.10;;;;;;6004435;23;20461;-77
2022/04/15 09:21:18;;;;;;;11.57;10.77;;;27.70;70.30;;;;;;6003963;23;21122;-77
2022/04/15 09:23:49;;;;;;;10.40;9.70;;;28.10;69.10;;;;;;5994973;23;20478;-75
2022/04/15 09:26:16;;;;;;;10.93;10.13;;;28.60;68.60;;;;;;6004396;23;20448;-75
2022/04/15 09:28:43;;;;;;;10.90;10.10;;;29.00;66.30;;;;;;6004381;23;20476;-76
2022/04/15 09:31:13;;;;;;;11.03;10.30;;;29.00;65.40;;;;;;5998807;23;20472;-76
2022/04/15 09:33:53;;;;;;;11.47;10.57;;;29.50;65.40;;;;;;6003414;23;20448;-76
2022/04/15 09:36:28;;;;;;;11.60;10.80;;;29.70;64.00;;;;;;6003985;23;20455;-76
2022/04/15 09:39:10;;;;;;;13.77;12.70;;;29.40;62.90;;;;;;6004405;23;20516;-77
2022/04/15 09:41:38;;;;;;;11.90;10.90;;;29.40;62.50;;;;;;6003704;23;20468;-77
2022/04/15 09:44:06;;;;;;;11.90;11.00;;;29.60;63.10;;;;;;5998827;23;20469;-77
2022/04/15 09:46:32;;;;;;;12.53;11.53;;;30.00;62.10;;;;;;6002776;23;20472;-77
2022/04/15 09:49:03;;;;;;;14.43;13.23;;;30.40;61.20;;;;;;6004010;23;20507;-77
2022/04/15 09:51:37;;;;;;;12.97;12.07;;;30.80;59.10;;;;;;6004385;23;20520;-77
2022/04/15 09:54:08;;;;;;;14.73;13.57;;;30.90;58.30;;;;;;5985559;23;20531;-77
2022/04/15 09:56:37;;;;;;;13.17;12.17;;;30.50;57.70;;;;;;6005784;23;20461;-77
2022/04/15 09:59:08;;;;;;;11.80;11.00;;;30.60;58.20;;;;;;6003434;23;21011;-76
2022/04/15 10:01:40;;;;;;;13.10;12.17;;;30.40;58.60;;;;;;5990947;23;20474;-77
2022/04/15 10:04:10;;;;;;;15.17;14.00;;;30.20;57.70;;;;;;5997989;23;20541;-77
2022/04/15 10:06:39;;;;;;;13.70;12.80;;;29.60;58.10;;;;;;5979291;23;20464;-76
2022/04/15 10:09:11;;;;;;;13.97;12.97;;;29.30;59.50;;;;;;6005002;23;20468;-77
2022/04/15 10:11:41;;;;;;;12.43;11.47;;;28.90;59.30;;;;;;6003908;23;20440;-77
2022/04/15 10:14:09;;;;;;;12.43;11.53;;;29.30;59.70;;;;;;6000199;23;20473;-76
2022/04/15 10:16:39;;;;;;;11.23;10.33;;;29.40;59.60;;;;;;6002722;23;20545;-76
2022/04/15 10:19:08;;;;;;;13.63;12.60;;;29.90;59.40;;;;;;6005254;23;20469;-76
2022/04/15 10:21:38;;;;;;;14.60;13.53;;;30.40;57.20;;;;;;6005402;23;20528;-76
2022/04/15 10:24:09;;;;;;;12.47;11.37;;;30.00;57.00;;;;;;6001881;23;20467;-76
2022/04/15 10:26:39;;;;;;;12.13;11.10;;;29.80;57.70;;;;;;6005244;23;20998;-77
2022/04/15 10:29:08;;;;;;;12.30;11.40;;;30.10;58.00;;;;;;6004744;23;20538;-77
2022/04/15 10:31:41;;;;;;;12.37;11.37;;;30.10;56.90;;;;;;6005275;23;20909;-77
2022/04/15 10:34:13;;;;;;;11.63;10.83;;;29.50;57.30;;;;;;6004499;23;20528;-77
2022/04/15 10:36:48;;;;;;;12.47;11.53;;;29.10;57.50;;;;;;5985007;23;20466;-77
2022/04/15 10:39:18;;;;;;;12.10;11.00;;;29.20;57.60;;;;;;5988167;23;20842;-77
2022/04/15 10:42:05;;;;;;;11.40;10.50;;;29.30;57.50;;;;;;6001026;23;20441;-77
2022/04/15 10:44:39;;;;;;;11.47;10.47;;;28.70;57.90;;;;;;6002023;23;20473;-77
2022/04/15 10:47:26;;;;;;;10.53;9.73;;;28.60;57.80;;;;;;6004666;23;20790;-77
2022/04/15 10:49:55;;;;;;;11.40;10.60;;;28.40;58.50;;;;;;5999148;23;20433;-76
2022/04/15 10:52:25;;;;;;;10.40;9.70;;;28.30;58.10;;;;;;6005440;23;20517;-76
2022/04/15 10:54:55;;;;;;;9.40;8.70;;;28.00;57.90;;;;;;5981218;23;20473;-77
2022/04/15 10:57:23;;;;;;;11.00;10.23;;;27.90;58.30;;;;;;6000542;23;20614;-76
2022/04/15 11:02:41;;;;;;;11.60;10.70;;;27.30;59.80;;;;;;5944125;23;20461;-76
2022/04/15 11:05:11;;;;;;;11.27;10.37;;;26.70;60.40;;;;;;5997911;23;20451;-76
2022/04/15 11:07:58;;;;;;;10.33;9.50;;;26.10;61.60;;;;;;5998512;23;20995;-76
2022/04/15 11:10:46;;;;;;;10.20;9.40;;;25.40;62.60;;;;;;6004437;23;20437;-76
2022/04/15 11:13:32;;;;;;;11.40;10.50;;;25.00;64.00;;;;;;6004945;23;20441;-76
2022/04/15 11:16:01;;;;;;;10.87;9.97;;;25.10;63.20;;;;;;6001044;23;20450;-75
2022/04/15 11:18:47;;;;;;;10.90;10.10;;;25.40;63.80;;;;;;6005067;23;20466;-76
2022/04/15 11:21:19;;;;;;;12.00;11.10;;;26.10;63.00;;;;;;5996294;23;20437;-76
2022/04/15 11:23:50;;;;;;;9.40;8.70;;;27.10;61.10;;;;;;6004796;23;20520;-76
2022/04/15 11:26:20;;;;;;;11.80;10.90;;;27.40;60.40;;;;;;5993590;23;20813;-76
2022/04/15 11:28:48;;;;;;;8.63;7.97;;;28.10;58.10;;;;;;6004565;23;20457;-76
2022/04/15 11:31:23;;;;;;;8.00;7.40;;;28.30;58.20;;;;;;6004256;23;20444;-76
2022/04/15 11:33:51;;;;;;;7.60;7.00;;;28.80;56.80;;;;;;6004774;23;20475;-76
2022/04/15 11:36:19;;;;;;;8.77;8.07;;;29.10;55.60;;;;;;6004623;23;20457;-76
2022/04/15 11:38:47;;;;;;;10.00;9.10;;;28.80;56.00;;;;;;6004268;23;20524;-76
2022/04/15 11:41:17;;;;;;;8.83;8.13;;;28.40;57.20;;;;;;6004827;23;20444;-76
2022/04/15 11:43:55;;;;;;;10.13;9.30;;;28.30;57.50;;;;;;6004599;23;20483;-76
2022/04/15 11:46:22;;;;;;;11.33;10.43;;;27.70;58.50;;;;;;5989432;23;20492;-76
2022/04/15 11:48:50;;;;;;;11.60;10.70;;;26.80;59.50;;;;;;6005783;23;20441;-76
2022/04/15 11:51:22;;;;;;;8.53;7.83;;;26.10;60.40;;;;;;6005767;23;20512;-76
2022/04/15 11:53:49;;;;;;;10.20;9.10;;;26.00;62.20;;;;;;6004479;23;20839;-76
2022/04/15 11:56:16;;;;;;;8.80;8.10;;;26.30;61.30;;;;;;5995162;23;20462;-77
2022/04/15 11:58:44;;;;;;;9.80;9.00;;;26.70;59.60;;;;;;5995466;23;20441;-78
2022/04/15 12:01:25;;;;;;;10.23;9.43;;;27.00;59.60;;;;;;6004014;23;20515;-76
2022/04/15 12:03:52;;;;;;;10.10;9.30;;;26.60;59.10;;;;;;6005671;23;20468;-76
2022/04/15 12:06:20;;;;;;;10.43;9.60;;;26.00;60.10;;;;;;5993244;23;20484;-76
2022/04/15 12:08:47;;;;;;;10.47;9.57;;;25.30;61.30;;;;;;6006903;23;20540;-78
2022/04/15 12:11:14;;;;;;;9.20;8.40;;;25.00;62.60;;;;;;6006181;23;20953;-77
2022/04/15 12:13:41;;;;;;;7.63;7.07;;;24.90;62.10;;;;;;6004894;23;20538;-77
2022/04/15 12:16:09;;;;;;;6.30;5.80;;;25.20;61.40;;;;;;5998376;23;20446;-76
2022/04/15 12:18:37;;;;;;;6.80;6.20;;;25.40;60.00;;;;;;5990211;23;20528;-76
2022/04/15 12:21:05;;;;;;;6.00;5.40;;;25.70;60.10;;;;;;6004738;23;20444;-76
2022/04/15 12:23:32;;;;;;;5.80;5.30;;;26.00;58.70;;;;;;6004328;23;20987;-77
2022/04/15 12:26:08;;;;;;;6.33;5.73;;;26.50;57.50;;;;;;6003596;23;20449;-76
2022/04/15 12:31:31;;;;;;;5.00;4.60;;;26.10;56.60;;;;;;5992387;23;20500;-76
2022/04/15 12:34:01;;;;;;;5.00;4.50;;;26.10;57.30;;;;;;6004527;23;20467;-76
2022/04/15 12:36:40;;;;;;;4.50;4.20;;;26.20;57.30;;;;;;6003600;23;20540;-76
2022/04/15 12:39:08;;;;;;;4.00;3.70;;;26.30;56.20;;;;;;6004120;23;20472;-76
2022/04/15 12:41:39;;;;;;;4.70;4.30;;;26.20;56.40;;;;;;6004990;23;20443;-76
2022/04/15 12:44:18;;;;;;;4.97;4.57;;;25.90;56.60;;;;;;6004270;23;20475;-76
2022/04/15 12:46:47;;;;;;;5.17;4.73;;;25.70;56.90;;;;;;6002743;23;21057;-77
2022/04/15 12:49:34;;;;;;;5.60;5.20;;;25.80;57.70;;;;;;6004694;23;20439;-76
2022/04/15 12:52:12;;;;;;;5.93;5.47;;;25.80;58.20;;;;;;6004232;23;20435;-76
2022/04/15 12:55:00;;;;;;;5.90;5.50;;;25.80;57.40;;;;;;6004675;23;20548;-76